Time;durP1;ratioP1;P1;durP2;ratioP2;P2;SDS_P1;SDS_P2;PMS_P1;PMS_P2;Temp;Humidity;BMP_temperature;BMP_pressure;BME280_temperature;BME280_humidity;BME280_pressure;Samples;Min_cycle;Max_cycle;Signal;HPM_P1;HPM_P2
2022/04/21 00:02:04;;;;;;;;;130.33;99.33;;;;;;;;5224273;28;8837;-69
2022/04/21 00:04:35;;;;;;;;;80.00;64.40;;;;;;;;5203508;28;8796;-68
2022/04/21 00:07:06;;;;;;;;;28.80;27.60;;;;;;;;5220369;28;8804;-69
2022/04/21 00:09:37;;;;;;;;;23.40;23.40;;;;;;;;5203658;28;8780;-69
2022/04/21 00:12:08;;;;;;;;;19.60;19.60;;;;;;;;5187332;28;8958;-69
2022/04/21 00:14:40;;;;;;;;;14.60;14.00;;;;;;;;5203814;28;8788;-69
2022/04/21 00:17:11;;;;;;;;;10.40;10.20;;;;;;;;5207115;28;8817;-69
2022/04/21 00:19:42;;;;;;;;;27.40;24.00;;;;;;;;5207876;28;8809;-69
2022/04/21 00:25:03;;;;;;;;;32.60;32.60;;;;;;;;5224262;28;8810;-69
2022/04/21 00:27:39;;;;;;;;;53.60;46.40;;;;;;;;5207869;28;8802;-69
2022/04/21 00:30:11;;;;;;;;;82.40;63.60;;;;;;;;5191145;28;8798;-69
2022/04/21 00:32:43;;;;;;;;;103.75;79.00;;;;;;;;5203053;28;8824;-69
2022/04/21 00:35:16;;;;;;;;;106.00;97.25;;;;;;;;5219909;28;8785;-69
2022/04/21 00:37:49;;;;;;;;;79.20;62.60;;;;;;;;5203277;28;8890;-68
2022/04/21 00:40:22;;;;;;;;;94.50;77.75;;;;;;;;5220113;28;9519;-69
2022/04/21 00:42:54;;;;;;;;;57.40;49.60;;;;;;;;5203630;28;8815;-69
2022/04/21 00:45:26;;;;;;;;;38.80;38.40;;;;;;;;5213071;28;8789;-69
2022/04/21 00:47:58;;;;;;;;;30.60;30.60;;;;;;;;5250203;28;8796;-68
2022/04/21 00:50:30;;;;;;;;;19.20;19.20;;;;;;;;5220519;28;8792;-70
2022/04/21 00:53:02;;;;;;;;;44.00;42.00;;;;;;;;5224045;28;8793;-68
2022/04/21 00:55:36;;;;;;;;;90.75;69.00;;;;;;;;5225111;28;8785;-69
2022/04/21 00:58:08;;;;;;;;;157.25;126.00;;;;;;;;5207692;28;8800;-68
2022/04/21 01:00:39;;;;;;;;;162.00;128.00;;;;;;;;5257072;28;9839;-68
2022/04/21 01:03:12;;;;;;;;;111.67;95.33;;;;;;;;5223702;28;10410;-68
2022/04/21 01:05:44;;;;;;;;;44.80;41.60;;;;;;;;5190411;28;8786;-71
2022/04/21 01:08:33;;;;;;;;;16.80;16.80;;;;;;;;5226624;28;9488;-70
2022/04/21 01:11:04;;;;;;;;;15.25;14.00;;;;;;;;5211108;28;8808;-70
2022/04/21 01:13:35;;;;;;;;;13.60;12.60;;;;;;;;5211126;28;10758;-70
2022/04/21 01:16:06;;;;;;;;;25.00;22.40;;;;;;;;5194708;28;8777;-70
2022/04/21 01:18:37;;;;;;;;;12.80;12.80;;;;;;;;5210997;28;8766;-69
2022/04/21 01:21:08;;;;;;;;;0.00;0.00;;;;;;;;5206374;28;8856;-69
2022/04/21 01:23:39;;;;;;;;;2.20;2.20;;;;;;;;5208366;28;8926;-69
2022/04/21 01:26:11;;;;;;;;;5.75;5.75;;;;;;;;5214468;28;8804;-69
2022/04/21 01:28:45;;;;;;;;;4.40;4.40;;;;;;;;5210607;28;11612;-68
2022/04/21 01:31:34;;;;;;;;;3.40;3.40;;;;;;;;5213559;28;9585;-68
2022/04/21 01:34:05;;;;;;;;;9.80;9.80;;;;;;;;5211236;28;8786;-68
2022/04/21 01:41:08;;;;;;;;;7.00;7.00;;;;;;;;5227041;28;8800;-69
2022/04/21 01:42:18;;;;;;;;;8.60;8.60;;;;;;;;5208589;28;8836;-70
2022/04/21 01:44:49;;;;;;;;;8.60;8.60;;;;;;;;5227115;28;8806;-68
2022/04/21 01:47:20;;;;;;;;;3.60;3.60;;;;;;;;5226737;28;8816;-69
2022/04/21 01:49:51;;;;;;;;;1.00;1.00;;;;;;;;5210640;28;8794;-68
2022/04/21 01:52:22;;;;;;;;;1.00;1.00;;;;;;;;5227244;28;8824;-68
2022/04/21 01:54:53;;;;;;;;;0.00;0.00;;;;;;;;5210421;28;9512;-68
2022/04/21 01:57:25;;;;;;;;;0.00;0.00;;;;;;;;5210617;28;8790;-68
2022/04/21 01:59:56;;;;;;;;;1.00;1.00;;;;;;;;5210210;28;8786;-68
2022/04/21 02:02:29;;;;;;;;;2.00;2.00;;;;;;;;5226297;28;8817;-68
2022/04/21 02:05:01;;;;;;;;;3.00;3.00;;;;;;;;5210163;28;8786;-68
2022/04/21 02:07:34;;;;;;;;;1.00;1.00;;;;;;;;5226953;28;8824;-69
2022/04/21 02:10:05;;;;;;;;;0.00;0.00;;;;;;;;5226849;28;8774;-68
2022/04/21 02:12:37;;;;;;;;;0.00;0.00;;;;;;;;5209987;28;8802;-68
2022/04/21 02:15:09;;;;;;;;;1.00;1.00;;;;;;;;5227043;28;8808;-68
2022/04/21 02:18:00;;;;;;;;;0.60;0.60;;;;;;;;5212624;28;8809;-68
2022/04/21 02:20:31;;;;;;;;;0.80;0.80;;;;;;;;5209533;28;8814;-69
2022/04/21 02:23:03;;;;;;;;;1.20;1.20;;;;;;;;5209606;28;9576;-67
2022/04/21 02:25:34;;;;;;;;;2.00;2.00;;;;;;;;5225799;28;8786;-67
2022/04/21 02:28:06;;;;;;;;;0.00;0.00;;;;;;;;5226496;28;9554;-67
2022/04/21 02:30:37;;;;;;;;;1.00;1.00;;;;;;;;5259753;28;8804;-68
2022/04/21 02:33:08;;;;;;;;;0.00;0.00;;;;;;;;5209824;28;8774;-69
2022/04/21 02:35:40;;;;;;;;;2.80;2.80;;;;;;;;5226795;28;8777;-68
2022/04/21 02:38:11;;;;;;;;;1.80;1.80;;;;;;;;5225962;28;8785;-68
2022/04/21 02:40:45;;;;;;;;;5.60;4.80;;;;;;;;5205098;28;9560;-68
2022/04/21 02:43:17;;;;;;;;;2.60;1.80;;;;;;;;5250778;28;8795;-68
2022/04/21 02:45:48;;;;;;;;;0.20;0.20;;;;;;;;5234204;28;8801;-68
2022/04/21 02:48:19;;;;;;;;;0.00;0.00;;;;;;;;5228039;28;8781;-68
2022/04/21 02:50:50;;;;;;;;;1.40;1.40;;;;;;;;5225812;28;8829;-69
2022/04/21 02:57:19;;;;;;;;;2.80;2.80;;;;;;;;5229875;28;8775;-68
2022/04/21 02:59:01;;;;;;;;;1.40;1.40;;;;;;;;5188860;28;8808;-67
2022/04/21 03:01:33;;;;;;;;;99.20;82.20;;;;;;;;5221808;28;8860;-67
2022/04/21 03:04:04;;;;;;;;;3.80;3.80;;;;;;;;5208731;28;8794;-67
2022/04/21 03:06:35;;;;;;;;;0.20;0.20;;;;;;;;5208635;28;8841;-68
2022/04/21 03:09:24;;;;;;;;;0.00;0.00;;;;;;;;5225971;28;8774;-68
2022/04/21 03:12:01;;;;;;;;;0.00;0.00;;;;;;;;5226469;28;8928;-68
2022/04/21 03:14:33;;;;;;;;;0.00;0.00;;;;;;;;5225266;28;8795;-68
2022/04/21 03:17:05;;;;;;;;;0.00;0.00;;;;;;;;5226008;28;8909;-67
2022/04/21 03:19:37;;;;;;;;;0.00;0.00;;;;;;;;5224997;28;8825;-67
2022/04/21 03:24:59;;;;;;;;;0.80;0.80;;;;;;;;5224748;28;8908;-67
2022/04/21 03:27:50;;;;;;;;;0.00;0.00;;;;;;;;5224865;28;8785;-67
2022/04/21 03:30:22;;;;;;;;;0.00;0.00;;;;;;;;5224619;28;8848;-67
2022/04/21 03:32:53;;;;;;;;;0.00;0.00;;;;;;;;5225154;28;8785;-68
2022/04/21 03:35:25;;;;;;;;;0.00;0.00;;;;;;;;5208548;28;8796;-67
2022/04/21 03:37:56;;;;;;;;;0.00;0.00;;;;;;;;5223915;28;8802;-67
2022/04/21 03:40:28;;;;;;;;;0.00;0.00;;;;;;;;5224697;28;8786;-67
2022/04/21 03:42:59;;;;;;;;;0.40;0.40;;;;;;;;5233991;28;8783;-69
2022/04/21 03:45:30;;;;;;;;;0.00;0.00;;;;;;;;5225103;28;9489;-68
2022/04/21 03:48:02;;;;;;;;;0.00;0.00;;;;;;;;5203091;28;8839;-68
2022/04/21 03:50:34;;;;;;;;;0.00;0.00;;;;;;;;5220399;28;9318;-68
2022/04/21 03:53:05;;;;;;;;;0.80;0.80;;;;;;;;5204360;28;8791;-68
2022/04/21 03:55:36;;;;;;;;;0.00;0.00;;;;;;;;5220488;28;8796;-68
2022/04/21 03:58:07;;;;;;;;;4.50;4.50;;;;;;;;5220505;28;8818;-67
2022/04/21 04:00:39;;;;;;;;;0.00;0.00;;;;;;;;5219782;28;11395;-70
2022/04/21 04:03:10;;;;;;;;;0.20;0.20;;;;;;;;5213014;28;8799;-70
2022/04/21 04:05:41;;;;;;;;;0.00;0.00;;;;;;;;5213912;28;8817;-69
2022/04/21 04:11:02;;;;;;;;;2.60;2.60;;;;;;;;5217889;28;8806;-68
2022/04/21 04:13:33;;;;;;;;;0.00;0.00;;;;;;;;5221305;28;8801;-70
2022/04/21 04:16:04;;;;;;;;;1.00;1.00;;;;;;;;5221507;28;8801;-71
2022/04/21 04:18:35;;;;;;;;;0.80;0.80;;;;;;;;5189516;28;11472;-68
2022/04/21 04:21:12;;;;;;;;;0.00;0.00;;;;;;;;5205716;28;8826;-70
2022/04/21 04:23:43;;;;;;;;;0.80;0.80;;;;;;;;5222675;28;8833;-68
2022/04/21 04:26:33;;;;;;;;;26.60;26.40;;;;;;;;5224569;28;9556;-66
2022/04/21 04:29:04;;;;;;;;;2.60;2.60;;;;;;;;5207100;28;8916;-67
2022/04/21 04:31:36;;;;;;;;;1.00;1.00;;;;;;;;5224009;28;8773;-68
2022/04/21 04:34:08;;;;;;;;;1.00;1.00;;;;;;;;5224117;28;8778;-67
2022/04/21 04:36:39;;;;;;;;;2.00;2.00;;;;;;;;5224673;28;9492;-69
2022/04/21 04:39:11;;;;;;;;;2.00;2.00;;;;;;;;5223940;28;8794;-68
2022/04/21 04:44:34;;;;;;;;;12.80;12.60;;;;;;;;5225929;28;8806;-70
2022/04/21 04:47:05;;;;;;;;;4.60;3.40;;;;;;;;5226397;28;8777;-69
2022/04/21 04:49:37;;;;;;;;;0.80;0.80;;;;;;;;5209835;28;8805;-68
2022/04/21 04:52:08;;;;;;;;;2.00;2.00;;;;;;;;5226337;28;8790;-69
2022/04/21 04:54:39;;;;;;;;;1.00;1.00;;;;;;;;5258955;28;8793;-70
2022/04/21 04:57:10;;;;;;;;;1.20;1.20;;;;;;;;5212063;28;8814;-69
2022/04/21 04:59:41;;;;;;;;;0.20;0.20;;;;;;;;5245628;28;9489;-68
2022/04/21 05:02:13;;;;;;;;;2.20;2.20;;;;;;;;5227160;28;8829;-68
2022/04/21 05:04:44;;;;;;;;;9.20;9.20;;;;;;;;5207929;28;8794;-68
2022/04/21 05:07:15;;;;;;;;;2.50;2.50;;;;;;;;5208322;28;8788;-69
2022/04/21 05:09:46;;;;;;;;;0.00;0.00;;;;;;;;5227416;28;9137;-68
2022/04/21 05:12:18;;;;;;;;;0.00;0.00;;;;;;;;5228530;28;8802;-69
2022/04/21 05:14:51;;;;;;;;;4.20;2.80;;;;;;;;5194514;28;8778;-69
2022/04/21 05:17:22;;;;;;;;;11.20;11.20;;;;;;;;5194193;28;8785;-68
2022/04/21 05:19:54;;;;;;;;;13.60;13.60;;;;;;;;5210216;28;8875;-69
2022/04/21 05:22:37;;;;;;;;;14.60;14.60;;;;;;;;5210710;28;8898;-68
2022/04/21 05:25:09;;;;;;;;;3.40;3.40;;;;;;;;5194551;28;8934;-68
2022/04/21 05:27:41;;;;;;;;;1.40;1.40;;;;;;;;5227260;28;8778;-69
2022/04/21 05:33:02;;;;;;;;;0.40;0.40;;;;;;;;5222287;28;8788;-69
2022/04/21 05:35:33;;;;;;;;;6.20;6.20;;;;;;;;5217278;28;8842;-70
2022/04/21 05:38:04;;;;;;;;;2.40;2.40;;;;;;;;5235267;28;8806;-70
2022/04/21 05:40:36;;;;;;;;;2.00;2.00;;;;;;;;5216376;28;8808;-76
2022/04/21 05:43:08;;;;;;;;;2.80;2.80;;;;;;;;5189082;28;8819;-69
2022/04/21 05:45:39;;;;;;;;;2.00;2.00;;;;;;;;5240268;28;8792;-69
2022/04/21 05:48:10;;;;;;;;;7.20;7.20;;;;;;;;5223282;28;9534;-69
2022/04/21 05:50:48;;;;;;;;;5.40;5.40;;;;;;;;5206233;28;8877;-69
2022/04/21 05:53:21;;;;;;;;;1.40;1.40;;;;;;;;5221848;28;8848;-69
2022/04/21 05:55:53;;;;;;;;;6.60;6.60;;;;;;;;5228761;28;8944;-70
2022/04/21 05:58:25;;;;;;;;;1.80;1.80;;;;;;;;5226174;28;8809;-70
2022/04/21 06:00:56;;;;;;;;;0.80;0.80;;;;;;;;5226701;28;8945;-70
2022/04/21 06:03:28;;;;;;;;;4.20;4.20;;;;;;;;5226616;28;8781;-70
2022/04/21 06:06:17;;;;;;;;;2.00;2.00;;;;;;;;5228167;28;9505;-70
2022/04/21 06:08:48;;;;;;;;;0.00;0.00;;;;;;;;5210135;28;8811;-69
2022/04/21 06:11:19;;;;;;;;;0.20;0.20;;;;;;;;5226406;28;11399;-69
2022/04/21 06:13:51;;;;;;;;;30.60;30.60;;;;;;;;5183018;28;8798;-69
2022/04/21 06:16:22;;;;;;;;;0.80;0.80;;;;;;;;5241505;28;8916;-69
2022/04/21 06:18:53;;;;;;;;;12.40;12.00;;;;;;;;5209898;28;8845;-68
2022/04/21 06:21:24;;;;;;;;;1.60;1.60;;;;;;;;5209689;28;8857;-69
2022/04/21 06:23:55;;;;;;;;;2.50;2.50;;;;;;;;5225947;28;8821;-69
2022/04/21 06:26:27;;;;;;;;;3.00;3.00;;;;;;;;5226014;28;9543;-69
2022/04/21 06:29:02;;;;;;;;;2.20;2.20;;;;;;;;5225922;28;9762;-69
2022/04/21 06:31:36;;;;;;;;;3.00;3.00;;;;;;;;5226784;28;9314;-69
2022/04/21 06:34:07;;;;;;;;;3.00;3.00;;;;;;;;5226283;28;8770;-69
2022/04/21 06:36:38;;;;;;;;;6.00;5.60;;;;;;;;5226929;28;8796;-69
2022/04/21 06:39:09;;;;;;;;;7.00;7.00;;;;;;;;5225472;28;9520;-69
2022/04/21 06:41:40;;;;;;;;;0.00;0.00;;;;;;;;5225937;28;8802;-69
2022/04/21 06:49:50;;;;;;;;;5.80;5.60;;;;;;;;5225344;28;8817;-71
2022/04/21 06:52:21;;;;;;;;;1.40;1.40;;;;;;;;5227500;28;8785;-70
2022/04/21 06:54:52;;;;;;;;;1.00;1.00;;;;;;;;5230971;28;8782;-70
2022/04/21 06:57:24;;;;;;;;;0.00;0.00;;;;;;;;5232930;28;8798;-70
2022/04/21 06:59:55;;;;;;;;;3.00;3.00;;;;;;;;5209362;28;8831;-70
2022/04/21 07:02:32;;;;;;;;;2.50;2.50;;;;;;;;5228418;28;8801;-70
2022/04/21 07:05:05;;;;;;;;;1.00;1.00;;;;;;;;5229549;28;8848;-70
2022/04/21 07:07:39;;;;;;;;;2.40;2.40;;;;;;;;5207940;28;8814;-69
2022/04/21 07:10:10;;;;;;;;;2.00;2.00;;;;;;;;5207591;28;9271;-70
2022/04/21 07:12:42;;;;;;;;;3.20;3.20;;;;;;;;5224154;28;8793;-70
2022/04/21 07:15:13;;;;;;;;;3.60;3.60;;;;;;;;5208464;28;8790;-69
2022/04/21 07:17:44;;;;;;;;;1.00;1.00;;;;;;;;5208936;28;8786;-71
2022/04/21 07:20:15;;;;;;;;;7.00;7.00;;;;;;;;5224445;28;9492;-69
2022/04/21 07:22:46;;;;;;;;;5.40;5.40;;;;;;;;5236164;28;8831;-68
2022/04/21 07:25:17;;;;;;;;;1.00;1.00;;;;;;;;5246700;28;9619;-68
2022/04/21 07:27:48;;;;;;;;;1.75;1.75;;;;;;;;5245824;28;8913;-68
2022/04/21 07:30:19;;;;;;;;;1.60;1.00;;;;;;;;5228994;28;8795;-68
2022/04/21 07:32:51;;;;;;;;;2.80;2.80;;;;;;;;5224533;28;8803;-68
2022/04/21 07:35:22;;;;;;;;;0.00;0.00;;;;;;;;5207592;28;8881;-68
2022/04/21 07:37:55;;;;;;;;;0.60;0.60;;;;;;;;5221084;28;8778;-67
2022/04/21 07:40:26;;;;;;;;;3.00;3.00;;;;;;;;5203891;28;8829;-67
2022/04/21 07:42:59;;;;;;;;;0.00;0.00;;;;;;;;5221297;28;8832;-68
2022/04/21 07:45:49;;;;;;;;;1.40;1.40;;;;;;;;5225014;28;8776;-68
2022/04/21 07:48:21;;;;;;;;;1.00;1.00;;;;;;;;5224818;28;8835;-69
2022/04/21 07:50:52;;;;;;;;;7.60;7.20;;;;;;;;5234420;28;8781;-68
2022/04/21 07:53:24;;;;;;;;;4.00;4.00;;;;;;;;5207882;28;8782;-68
2022/04/21 07:55:55;;;;;;;;;8.80;8.80;;;;;;;;5207440;28;8789;-68
2022/04/21 07:58:27;;;;;;;;;2.00;2.00;;;;;;;;5224128;28;9500;-69
2022/04/21 08:00:58;;;;;;;;;1.00;1.00;;;;;;;;5225661;28;8793;-69
2022/04/21 08:03:35;;;;;;;;;3.00;3.00;;;;;;;;5207936;28;8920;-69
2022/04/21 08:06:06;;;;;;;;;4.40;4.40;;;;;;;;5207838;28;8774;-69
2022/04/21 08:08:37;;;;;;;;;1.00;1.00;;;;;;;;5221203;28;8797;-70
2022/04/21 08:11:26;;;;;;;;;2.60;2.60;;;;;;;;5205813;28;8947;-69
2022/04/21 08:13:57;;;;;;;;;1.00;1.00;;;;;;;;5201882;28;8914;-69
2022/04/21 08:16:29;;;;;;;;;3.40;3.40;;;;;;;;5204844;28;8901;-74
2022/04/21 08:19:18;;;;;;;;;5.60;5.60;;;;;;;;5202453;28;8792;-69
2022/04/21 08:21:49;;;;;;;;;9.25;8.75;;;;;;;;5201418;28;8879;-71
2022/04/21 08:32:48;;;;;;;;;3.00;3.00;;;;;;;;5221953;28;9199;-68
2022/04/21 08:35:19;;;;;;;;;2.25;2.25;;;;;;;;5189180;28;9411;-69
2022/04/21 08:37:50;;;;;;;;;0.20;0.20;;;;;;;;5205193;28;8802;-71
2022/04/21 08:40:23;;;;;;;;;0.00;0.00;;;;;;;;5189309;28;8821;-69
2022/04/21 08:42:55;;;;;;;;;2.00;2.00;;;;;;;;5188874;28;8841;-69
2022/04/21 08:45:26;;;;;;;;;4.00;4.00;;;;;;;;5189159;28;8867;-69
2022/04/21 08:47:58;;;;;;;;;0.00;0.00;;;;;;;;5182182;28;8829;-69
2022/04/21 08:50:29;;;;;;;;;3.20;3.20;;;;;;;;5203987;28;8797;-71
2022/04/21 08:53:00;;;;;;;;;3.00;3.00;;;;;;;;5248498;28;8843;-70
2022/04/21 08:55:32;;;;;;;;;0.00;0.00;;;;;;;;5222103;28;8836;-69
2022/04/21 08:58:04;;;;;;;;;75.80;60.00;;;;;;;;5189078;28;8810;-69
2022/04/21 09:00:34;;;;;;;;;1.40;1.40;;;;;;;;5223041;28;9503;-68
2022/04/21 09:03:06;;;;;;;;;2.25;2.25;;;;;;;;5205287;28;8899;-69
2022/04/21 09:05:38;;;;;;;;;2.40;2.40;;;;;;;;5205537;28;8811;-69
2022/04/21 09:08:22;;;;;;;;;1.80;1.80;;;;;;;;5222765;28;8843;-68
2022/04/21 09:11:07;;;;;;;;;4.40;4.40;;;;;;;;5223020;28;8808;-69
2022/04/21 09:13:39;;;;;;;;;7.60;7.60;;;;;;;;5201485;28;8796;-70
2022/04/21 09:16:12;;;;;;;;;2.60;2.60;;;;;;;;5234830;28;8796;-68
2022/04/21 09:18:45;;;;;;;;;3.00;3.00;;;;;;;;5201167;28;8804;-68
2022/04/21 09:21:18;;;;;;;;;2.60;2.60;;;;;;;;5202373;28;8848;-68
2022/04/21 09:23:49;;;;;;;;;2.00;2.00;;;;;;;;5201394;28;9579;-69
2022/04/21 09:26:44;;;;;;;;;2.00;2.00;;;;;;;;5220144;28;8802;-68
2022/04/21 09:29:25;;;;;;;;;4.40;4.40;;;;;;;;5217102;28;8805;-69
2022/04/21 09:32:00;;;;;;;;;5.40;5.40;;;;;;;;5223638;28;8821;-69
2022/04/21 09:34:31;;;;;;;;;4.80;4.80;;;;;;;;5222408;28;8804;-68
2022/04/21 09:37:20;;;;;;;;;2.80;2.80;;;;;;;;5228088;28;8820;-68
2022/04/21 09:39:52;;;;;;;;;2.00;2.00;;;;;;;;5228019;28;8790;-68
2022/04/21 09:42:26;;;;;;;;;1.20;1.20;;;;;;;;5233719;28;8817;-67
2022/04/21 09:48:01;;;;;;;;;6.80;6.80;;;;;;;;5243377;28;8787;-67
2022/04/21 09:50:32;;;;;;;;;2.00;2.00;;;;;;;;5219209;28;8804;-67
2022/04/21 09:53:03;;;;;;;;;0.00;0.00;;;;;;;;5206149;28;8885;-67
2022/04/21 09:55:34;;;;;;;;;9.00;9.00;;;;;;;;5206379;28;8815;-67
2022/04/21 09:58:24;;;;;;;;;1.60;1.60;;;;;;;;5218172;28;8833;-67
2022/04/21 10:00:55;;;;;;;;;4.00;4.00;;;;;;;;5209833;28;8794;-66
2022/04/21 10:03:33;;;;;;;;;2.00;2.00;;;;;;;;5227621;28;9577;-67
2022/04/21 10:06:23;;;;;;;;;2.00;2.00;;;;;;;;5226359;28;8789;-67
2022/04/21 10:08:55;;;;;;;;;1.00;1.00;;;;;;;;5226402;28;9437;-67
2022/04/21 10:11:44;;;;;;;;;9.40;9.40;;;;;;;;5226194;28;9525;-68
2022/04/21 10:14:17;;;;;;;;;4.00;4.00;;;;;;;;5226114;28;9003;-67
2022/04/21 10:16:50;;;;;;;;;0.40;0.40;;;;;;;;5210314;28;11502;-67
2022/04/21 10:19:21;;;;;;;;;2.60;2.60;;;;;;;;5226704;28;9569;-67
2022/04/21 10:22:04;;;;;;;;;1.00;1.00;;;;;;;;5226745;28;8837;-67
2022/04/21 10:24:37;;;;;;;;;0.00;0.00;;;;;;;;5226036;28;8814;-66
2022/04/21 10:27:26;;;;;;;;;2.00;2.00;;;;;;;;5227768;28;8789;-67
2022/04/21 10:29:57;;;;;;;;;0.40;0.40;;;;;;;;5226511;28;8778;-67
2022/04/21 10:32:48;;;;;;;;;3.50;3.50;;;;;;;;5226718;28;8819;-67
2022/04/21 10:35:22;;;;;;;;;1.00;1.00;;;;;;;;5226204;28;8798;-68
2022/04/21 10:38:12;;;;;;;;;2.40;2.40;;;;;;;;5207391;28;8806;-68
2022/04/21 10:40:56;;;;;;;;;5.40;5.40;;;;;;;;5226205;28;8912;-68
2022/04/21 10:43:45;;;;;;;;;2.00;2.00;;;;;;;;5226125;28;8840;-69
2022/04/21 10:46:19;;;;;;;;;0.00;0.00;;;;;;;;5227368;28;8888;-68
2022/04/21 10:48:50;;;;;;;;;0.60;0.60;;;;;;;;5219239;28;8812;-67
2022/04/21 10:51:40;;;;;;;;;1.00;1.00;;;;;;;;5226603;28;8778;-67
2022/04/21 10:57:12;;;;;;;;;2.40;2.40;;;;;;;;5225544;28;8812;-67
2022/04/21 11:00:03;;;;;;;;;6.20;6.20;;;;;;;;5225625;28;8782;-67
2022/04/21 11:02:42;;;;;;;;;4.00;4.00;;;;;;;;5209120;28;8806;-67
2022/04/21 11:05:22;;;;;;;;;1.00;1.00;;;;;;;;5225706;28;8785;-67
2022/04/21 11:07:54;;;;;;;;;2.40;2.40;;;;;;;;5204156;28;8784;-68
2022/04/21 11:10:37;;;;;;;;;0.00;0.00;;;;;;;;5189913;28;8788;-68
2022/04/21 11:13:09;;;;;;;;;2.80;2.80;;;;;;;;5192353;28;8854;-67
2022/04/21 11:15:44;;;;;;;;;1.20;1.20;;;;;;;;5208826;28;8789;-67
2022/04/21 11:18:30;;;;;;;;;28.00;25.40;;;;;;;;5191888;28;8796;-67
2022/04/21 11:21:21;;;;;;;;;141.00;116.00;;;;;;;;5229695;28;9566;-67
2022/04/21 11:23:55;;;;;;;;;42.80;38.20;;;;;;;;5226253;28;9137;-67
2022/04/21 11:26:28;;;;;;;;;1.00;1.00;;;;;;;;5191837;28;8955;-66
2022/04/21 11:29:03;;;;;;;;;3.80;3.80;;;;;;;;5208344;28;8782;-67
2022/04/21 11:31:34;;;;;;;;;1.40;1.40;;;;;;;;5208266;28;8802;-66
2022/04/21 11:34:04;;;;;;;;;1.00;1.00;;;;;;;;5226561;28;8806;-66
2022/04/21 11:36:37;;;;;;;;;2.00;2.00;;;;;;;;5225170;28;9552;-70
2022/04/21 11:39:26;;;;;;;;;0.00;0.00;;;;;;;;5220470;28;11552;-67
2022/04/21 11:41:57;;;;;;;;;18.60;16.60;;;;;;;;5205466;28;8816;-66
2022/04/21 11:44:47;;;;;;;;;2.00;2.00;;;;;;;;5205225;28;8777;-66
2022/04/21 11:47:21;;;;;;;;;10.00;10.00;;;;;;;;5223057;28;8799;-67
2022/04/21 11:50:01;;;;;;;;;2.00;2.00;;;;;;;;5229330;28;8782;-67
2022/04/21 11:52:54;;;;;;;;;1.60;1.60;;;;;;;;5223430;28;8798;-67
2022/04/21 11:55:28;;;;;;;;;2.60;2.60;;;;;;;;5207818;28;8952;-67
2022/04/21 11:57:59;;;;;;;;;2.60;2.60;;;;;;;;5186735;28;8804;-67
2022/04/21 12:06:29;;;;;;;;;0.40;0.40;;;;;;;;5205132;28;8799;-68
2022/04/21 12:09:00;;;;;;;;;3.00;3.00;;;;;;;;5214540;28;8811;-68
2022/04/21 12:11:33;;;;;;;;;1.40;1.40;;;;;;;;5225831;28;8839;-68
2022/04/21 12:14:04;;;;;;;;;1.00;1.00;;;;;;;;5191966;28;8781;-67
2022/04/21 12:16:36;;;;;;;;;1.60;1.60;;;;;;;;5224850;28;8847;-68
2022/04/21 12:19:17;;;;;;;;;2.00;2.00;;;;;;;;5224697;28;8799;-67
2022/04/21 12:22:02;;;;;;;;;3.00;3.00;;;;;;;;5245161;28;8873;-68
2022/04/21 12:24:38;;;;;;;;;2.40;2.40;;;;;;;;5199821;28;8794;-67
2022/04/21 12:27:13;;;;;;;;;1.00;1.00;;;;;;;;5204432;28;8772;-68
2022/04/21 12:29:48;;;;;;;;;2.60;2.60;;;;;;;;5208187;28;8786;-70
2022/04/21 12:32:20;;;;;;;;;3.60;3.60;;;;;;;;5222843;28;8793;-68
2022/04/21 12:34:54;;;;;;;;;2.00;2.00;;;;;;;;5238795;28;8923;-67
2022/04/21 12:37:29;;;;;;;;;1.40;1.40;;;;;;;;5223447;28;8805;-67
2022/04/21 12:40:02;;;;;;;;;3.00;3.00;;;;;;;;5206171;28;8859;-66
2022/04/21 12:42:33;;;;;;;;;2.20;2.20;;;;;;;;5222190;28;8814;-67
2022/04/21 12:45:05;;;;;;;;;1.75;1.75;;;;;;;;5223792;28;8876;-68
2022/04/21 12:47:46;;;;;;;;;4.00;4.00;;;;;;;;5221999;28;8818;-67
2022/04/21 12:50:18;;;;;;;;;0.00;0.00;;;;;;;;5222779;28;8816;-67
2022/04/21 12:52:50;;;;;;;;;1.80;1.80;;;;;;;;5222072;28;8797;-67
2022/04/21 12:55:21;;;;;;;;;1.00;1.00;;;;;;;;5230712;28;8872;-67
2022/04/21 12:58:11;;;;;;;;;2.20;2.20;;;;;;;;5243466;28;8807;-66
2022/04/21 13:00:45;;;;;;;;;3.00;3.00;;;;;;;;5225982;28;8813;-67
2022/04/21 13:03:16;;;;;;;;;0.80;0.80;;;;;;;;5221981;28;8955;-66
2022/04/21 13:05:52;;;;;;;;;2.80;2.80;;;;;;;;5208959;28;8778;-67
2022/04/21 13:08:27;;;;;;;;;0.00;0.00;;;;;;;;5188782;28;9547;-67
2022/04/21 13:10:58;;;;;;;;;3.00;3.00;;;;;;;;5221615;28;9495;-67
2022/04/21 13:13:29;;;;;;;;;2.25;2.25;;;;;;;;5206135;28;8807;-66
2022/04/21 13:16:19;;;;;;;;;1.00;1.00;;;;;;;;5220918;28;8798;-67
2022/04/21 13:18:50;;;;;;;;;1.00;1.00;;;;;;;;5226720;28;8804;-67
2022/04/21 13:24:11;;;;;;;;;3.00;3.00;;;;;;;;5226421;28;8957;-66
2022/04/21 13:26:41;;;;;;;;;4.00;4.00;;;;;;;;5227881;28;9604;-67
2022/04/21 13:29:12;;;;;;;;;1.00;1.00;;;;;;;;5228600;28;11483;-67
2022/04/21 13:34:33;;;;;;;;;2.20;2.20;;;;;;;;5227203;28;9993;-68
2022/04/21 13:37:04;;;;;;;;;3.00;3.00;;;;;;;;5227044;28;8790;-68
2022/04/21 13:39:53;;;;;;;;;1.00;1.00;;;;;;;;5226282;28;8794;-70
2022/04/21 13:42:24;;;;;;;;;9.40;9.40;;;;;;;;5228669;28;8818;-69
2022/04/21 13:44:55;;;;;;;;;8.25;8.25;;;;;;;;5210115;28;8820;-69
2022/04/21 13:47:26;;;;;;;;;2.25;2.25;;;;;;;;5238624;28;9020;-67
2022/04/21 13:49:56;;;;;;;;;1.00;1.00;;;;;;;;5248659;28;11442;-68
2022/04/21 13:52:27;;;;;;;;;4.75;4.75;;;;;;;;5241604;28;9535;-68
2022/04/21 13:54:58;;;;;;;;;0.00;0.00;;;;;;;;5227124;28;11670;-68
2022/04/21 13:57:29;;;;;;;;;1.00;1.00;;;;;;;;5228019;28;8863;-68
2022/04/21 14:00:24;;;;;;;;;1.00;1.00;;;;;;;;5228037;28;8861;-67
2022/04/21 14:02:55;;;;;;;;;2.60;2.60;;;;;;;;5225830;28;8849;-68
2022/04/21 14:05:26;;;;;;;;;6.20;6.20;;;;;;;;5226608;28;8924;-68
2022/04/21 14:07:57;;;;;;;;;1.60;1.60;;;;;;;;5226506;28;8916;-68
2022/04/21 14:10:29;;;;;;;;;1.00;1.00;;;;;;;;5224144;28;8786;-67
2022/04/21 14:12:59;;;;;;;;;2.50;2.50;;;;;;;;5215510;28;11578;-68
2022/04/21 14:15:31;;;;;;;;;1.20;1.20;;;;;;;;5219342;28;9057;-68
2022/04/21 14:18:02;;;;;;;;;10.00;9.60;;;;;;;;5225458;28;8806;-70
2022/04/21 14:20:33;;;;;;;;;3.00;3.00;;;;;;;;5224324;28;8813;-69
2022/04/21 14:23:03;;;;;;;;;1.33;1.33;;;;;;;;5225603;28;11500;-69
2022/04/21 14:25:34;;;;;;;;;2.00;2.00;;;;;;;;5224551;28;8938;-68
2022/04/21 14:28:05;;;;;;;;;4.00;4.00;;;;;;;;5223971;28;11426;-68
2022/04/21 14:30:36;;;;;;;;;1.00;1.00;;;;;;;;5225448;28;8782;-69
2022/04/21 14:33:09;;;;;;;;;2.00;2.00;;;;;;;;5223077;28;8844;-70
2022/04/21 14:35:39;;;;;;;;;3.50;3.50;;;;;;;;5203620;28;8911;-70
2022/04/21 14:44:04;;;;;;;;;6.25;6.25;;;;;;;;5219877;28;8807;-68
2022/04/21 14:46:54;;;;;;;;;2.75;2.75;;;;;;;;5206299;28;8826;-68
2022/04/21 14:49:26;;;;;;;;;1.00;1.00;;;;;;;;5218629;28;8851;-67
2022/04/21 14:51:57;;;;;;;;;2.00;2.00;;;;;;;;5205036;28;8820;-68
2022/04/21 14:54:28;;;;;;;;;1.00;1.00;;;;;;;;5206506;28;8808;-67
2022/04/21 14:56:58;;;;;;;;;2.00;2.00;;;;;;;;5218482;28;11584;-67
2022/04/21 14:59:31;;;;;;;;;1.00;1.00;;;;;;;;5185592;28;8802;-67
2022/04/21 15:02:02;;;;;;;;;4.25;4.25;;;;;;;;5203313;28;11466;-67
2022/04/21 15:04:34;;;;;;;;;3.50;3.25;;;;;;;;5219184;28;8798;-68
2022/04/21 15:07:05;;;;;;;;;3.50;3.50;;;;;;;;5191329;28;8841;-68
2022/04/21 15:09:36;;;;;;;;;4.00;4.00;;;;;;;;5225188;28;8786;-68
2022/04/21 15:12:07;;;;;;;;;7.33;7.33;;;;;;;;5226817;28;9585;-68
2022/04/21 15:14:39;;;;;;;;;6.00;6.00;;;;;;;;5225515;28;11457;-67
2022/04/21 15:17:28;;;;;;;;;4.25;4.25;;;;;;;;5226146;28;8786;-68
2022/04/21 15:19:59;;;;;;;;;3.00;3.00;;;;;;;;5225097;28;8789;-68
2022/04/21 15:22:30;;;;;;;;;2.50;2.50;;;;;;;;5208364;28;8902;-67
2022/04/21 15:25:01;;;;;;;;;7.67;7.67;;;;;;;;5226741;28;8778;-68
2022/04/21 15:27:32;;;;;;;;;9.00;9.00;;;;;;;;5224739;28;8781;-67
2022/04/21 15:30:03;;;;;;;;;9.50;9.50;;;;;;;;5226568;28;11461;-67
2022/04/21 15:32:34;;;;;;;;;11.50;11.50;;;;;;;;5208242;28;8817;-67
2022/04/21 15:35:05;;;;;;;;;7.00;7.00;;;;;;;;5226273;28;8832;-67
2022/04/21 15:37:39;;;;;;;;;25.00;24.60;;;;;;;;5224389;28;11486;-67
2022/04/21 15:40:10;;;;;;;;;6.50;6.50;;;;;;;;5225081;28;8828;-67
2022/04/21 15:43:00;;;;;;;;;3.50;3.50;;;;;;;;5225937;28;8790;-68
2022/04/21 15:45:31;;;;;;;;;8.00;8.00;;;;;;;;5226113;28;8898;-68
2022/04/21 15:48:03;;;;;;;;;7.40;7.40;;;;;;;;5208525;28;8796;-68
2022/04/21 15:50:35;;;;;;;;;3.00;3.00;;;;;;;;5191941;28;8824;-68
2022/04/21 15:59:04;;;;;;;;;7.20;7.20;;;;;;;;5225579;28;8797;-68
2022/04/21 16:01:35;;;;;;;;;7.50;7.50;;;;;;;;5225920;28;9563;-68
2022/04/21 16:04:06;;;;;;;;;13.25;11.75;;;;;;;;5224889;28;10888;-67
2022/04/21 16:06:55;;;;;;;;;13.80;13.20;;;;;;;;5224634;28;11534;-67
2022/04/21 16:09:26;;;;;;;;;10.60;9.80;;;;;;;;5225814;28;8820;-67
2022/04/21 16:11:57;;;;;;;;;16.25;13.75;;;;;;;;5225629;28;9505;-68
2022/04/21 16:14:28;;;;;;;;;8.20;8.00;;;;;;;;5224835;28;8818;-68
2022/04/21 16:16:58;;;;;;;;;11.75;11.75;;;;;;;;5225622;28;8774;-68
2022/04/21 16:19:29;;;;;;;;;6.50;6.50;;;;;;;;5224424;28;8809;-67
2022/04/21 16:22:19;;;;;;;;;8.40;8.40;;;;;;;;5224332;28;8829;-68
2022/04/21 16:24:50;;;;;;;;;10.50;10.25;;;;;;;;5225560;28;8867;-68
2022/04/21 16:27:20;;;;;;;;;6.00;6.00;;;;;;;;5224892;28;8790;-67
2022/04/21 16:29:52;;;;;;;;;14.50;14.00;;;;;;;;5225599;28;8766;-67
2022/04/21 16:32:24;;;;;;;;;16.80;14.80;;;;;;;;5225494;28;8805;-68
2022/04/21 16:34:55;;;;;;;;;20.60;17.20;;;;;;;;5224576;28;9537;-68